sensor_id;sensor_type;location;lat;lon;timestamp;P1;durP1;ratioP1;P2;durP2;ratioP2
78875;SDS011;68253;52.506;5.486;2023-08-24T00:01:24;4.95;;;1.50;;
78875;SDS011;68253;52.506;5.486;2023-08-24T00:03:51;4.05;;;0.90;;
78875;SDS011;68253;52.506;5.486;2023-08-24T00:06:18;4.47;;;1.10;;
78875;SDS011;68253;52.506;5.486;2023-08-24T00:08:44;4.22;;;1.02;;
78875;SDS011;68253;52.506;5.486;2023-08-24T00:11:10;4.43;;;1.23;;
78875;SDS011;68253;52.506;5.486;2023-08-24T00:13:41;4.47;;;1.00;;
78875;SDS011;68253;52.506;5.486;2023-08-24T00:16:12;7.13;;;1.25;;
78875;SDS011;68253;52.506;5.486;2023-08-24T00:18:38;4.82;;;1.13;;
78875;SDS011;68253;52.506;5.486;2023-08-24T00:21:04;3.08;;;1.05;;
78875;SDS011;68253;52.506;5.486;2023-08-24T00:23:30;4.20;;;1.20;;
78875;SDS011;68253;52.506;5.486;2023-08-24T00:25:56;5.57;;;1.20;;
78875;SDS011;68253;52.506;5.486;2023-08-24T00:28:22;5.88;;;1.30;;
78875;SDS011;68253;52.506;5.486;2023-08-24T00:30:48;5.47;;;1.50;;
78875;SDS011;68253;52.506;5.486;2023-08-24T00:33:14;7.43;;;1.40;;
78875;SDS011;68253;52.506;5.486;2023-08-24T00:35:41;5.40;;;1.40;;
78875;SDS011;68253;52.506;5.486;2023-08-24T00:38:07;5.53;;;1.40;;
78875;SDS011;68253;52.506;5.486;2023-08-24T00:40:33;3.85;;;1.48;;
78875;SDS011;68253;52.506;5.486;2023-08-24T00:43:00;5.15;;;1.50;;
78875;SDS011;68253;52.506;5.486;2023-08-24T00:45:28;5.70;;;1.58;;
78875;SDS011;68253;52.506;5.486;2023-08-24T00:47:56;4.97;;;1.30;;
78875;SDS011;68253;52.506;5.486;2023-08-24T00:50:22;6.90;;;1.80;;
78875;SDS011;68253;52.506;5.486;2023-08-24T00:52:49;5.88;;;1.42;;
78875;SDS011;68253;52.506;5.486;2023-08-24T00:55:15;6.95;;;1.80;;
78875;SDS011;68253;52.506;5.486;2023-08-24T00:57:43;7.60;;;2.20;;
78875;SDS011;68253;52.506;5.486;2023-08-24T01:00:10;7.75;;;1.70;;
78875;SDS011;68253;52.506;5.486;2023-08-24T01:02:37;5.43;;;1.70;;
78875;SDS011;68253;52.506;5.486;2023-08-24T01:05:04;5.88;;;1.50;;
78875;SDS011;68253;52.506;5.486;2023-08-24T01:07:31;5.93;;;1.73;;
78875;SDS011;68253;52.506;5.486;2023-08-24T01:09:58;6.63;;;1.60;;
78875;SDS011;68253;52.506;5.486;2023-08-24T01:12:30;5.55;;;1.50;;
78875;SDS011;68253;52.506;5.486;2023-08-24T01:15:26;6.15;;;1.58;;
78875;SDS011;68253;52.506;5.486;2023-08-24T01:18:01;4.43;;;1.42;;
78875;SDS011;68253;52.506;5.486;2023-08-24T01:20:31;8.48;;;2.03;;
78875;SDS011;68253;52.506;5.486;2023-08-24T01:23:14;4.85;;;1.25;;
78875;SDS011;68253;52.506;5.486;2023-08-24T01:28:19;6.75;;;2.20;;
78875;SDS011;68253;52.506;5.486;2023-08-24T01:30:47;5.18;;;1.50;;
78875;SDS011;68253;52.506;5.486;2023-08-24T01:33:14;5.88;;;1.70;;
78875;SDS011;68253;52.506;5.486;2023-08-24T01:35:41;4.50;;;1.55;;
78875;SDS011;68253;52.506;5.486;2023-08-24T01:38:07;6.57;;;1.98;;
78875;SDS011;68253;52.506;5.486;2023-08-24T01:40:49;7.55;;;2.25;;
78875;SDS011;68253;52.506;5.486;2023-08-24T01:43:20;5.18;;;1.30;;
78875;SDS011;68253;52.506;5.486;2023-08-24T01:45:50;5.15;;;1.77;;
78875;SDS011;68253;52.506;5.486;2023-08-24T01:48:18;6.85;;;1.90;;
78875;SDS011;68253;52.506;5.486;2023-08-24T01:50:45;5.80;;;1.55;;
78875;SDS011;68253;52.506;5.486;2023-08-24T01:53:12;7.43;;;2.63;;
78875;SDS011;68253;52.506;5.486;2023-08-24T01:55:39;7.75;;;1.92;;
78875;SDS011;68253;52.506;5.486;2023-08-24T01:58:06;7.10;;;1.88;;
78875;SDS011;68253;52.506;5.486;2023-08-24T02:00:32;6.47;;;2.17;;
78875;SDS011;68253;52.506;5.486;2023-08-24T02:02:58;7.25;;;1.80;;
78875;SDS011;68253;52.506;5.486;2023-08-24T02:05:24;7.05;;;2.30;;
78875;SDS011;68253;52.506;5.486;2023-08-24T02:07:54;6.25;;;1.88;;
78875;SDS011;68253;52.506;5.486;2023-08-24T02:10:22;6.65;;;1.90;;
78875;SDS011;68253;52.506;5.486;2023-08-24T02:12:49;8.55;;;2.65;;
78875;SDS011;68253;52.506;5.486;2023-08-24T02:15:15;6.80;;;2.10;;
78875;SDS011;68253;52.506;5.486;2023-08-24T02:17:41;6.25;;;2.10;;
78875;SDS011;68253;52.506;5.486;2023-08-24T02:20:07;6.60;;;2.25;;
78875;SDS011;68253;52.506;5.486;2023-08-24T02:22:34;7.40;;;2.30;;
78875;SDS011;68253;52.506;5.486;2023-08-24T02:25:00;5.53;;;1.85;;
78875;SDS011;68253;52.506;5.486;2023-08-24T02:27:28;5.75;;;1.98;;
78875;SDS011;68253;52.506;5.486;2023-08-24T02:29:54;7.07;;;2.30;;
78875;SDS011;68253;52.506;5.486;2023-08-24T02:32:20;5.32;;;1.75;;
78875;SDS011;68253;52.506;5.486;2023-08-24T02:34:46;9.75;;;2.70;;
78875;SDS011;68253;52.506;5.486;2023-08-24T02:37:13;6.90;;;2.03;;
78875;SDS011;68253;52.506;5.486;2023-08-24T02:39:41;6.93;;;2.47;;
78875;SDS011;68253;52.506;5.486;2023-08-24T02:42:07;6.53;;;2.20;;
78875;SDS011;68253;52.506;5.486;2023-08-24T02:44:33;8.35;;;2.33;;
78875;SDS011;68253;52.506;5.486;2023-08-24T02:47:00;7.07;;;2.55;;
78875;SDS011;68253;52.506;5.486;2023-08-24T02:49:26;7.25;;;2.30;;
78875;SDS011;68253;52.506;5.486;2023-08-24T02:51:53;7.97;;;2.80;;
78875;SDS011;68253;52.506;5.486;2023-08-24T02:54:19;7.22;;;2.50;;
78875;SDS011;68253;52.506;5.486;2023-08-24T02:56:45;7.97;;;2.50;;
78875;SDS011;68253;52.506;5.486;2023-08-24T02:59:11;8.02;;;2.40;;
78875;SDS011;68253;52.506;5.486;2023-08-24T03:01:37;7.45;;;2.40;;
78875;SDS011;68253;52.506;5.486;2023-08-24T03:06:33;7.53;;;2.40;;
78875;SDS011;68253;52.506;5.486;2023-08-24T03:09:00;6.53;;;2.13;;
78875;SDS011;68253;52.506;5.486;2023-08-24T03:11:29;6.85;;;2.22;;
78875;SDS011;68253;52.506;5.486;2023-08-24T03:13:55;8.02;;;2.83;;
78875;SDS011;68253;52.506;5.486;2023-08-24T03:16:21;7.97;;;2.38;;
78875;SDS011;68253;52.506;5.486;2023-08-24T03:18:48;7.32;;;3.05;;
78875;SDS011;68253;52.506;5.486;2023-08-24T03:21:16;9.25;;;2.60;;
78875;SDS011;68253;52.506;5.486;2023-08-24T03:23:42;7.40;;;2.15;;
78875;SDS011;68253;52.506;5.486;2023-08-24T03:26:08;7.45;;;2.85;;
78875;SDS011;68253;52.506;5.486;2023-08-24T03:28:35;7.60;;;2.63;;
78875;SDS011;68253;52.506;5.486;2023-08-24T03:31:01;8.10;;;2.88;;
78875;SDS011;68253;52.506;5.486;2023-08-24T03:33:28;7.93;;;2.58;;
78875;SDS011;68253;52.506;5.486;2023-08-24T03:35:54;7.28;;;2.65;;
78875;SDS011;68253;52.506;5.486;2023-08-24T03:38:20;7.40;;;2.67;;
78875;SDS011;68253;52.506;5.486;2023-08-24T03:40:47;6.93;;;2.50;;
78875;SDS011;68253;52.506;5.486;2023-08-24T03:43:13;7.40;;;2.65;;
78875;SDS011;68253;52.506;5.486;2023-08-24T03:45:39;8.38;;;3.10;;
78875;SDS011;68253;52.506;5.486;2023-08-24T03:48:07;8.23;;;2.55;;
78875;SDS011;68253;52.506;5.486;2023-08-24T03:50:33;8.35;;;2.40;;
78875;SDS011;68253;52.506;5.486;2023-08-24T03:52:59;10.02;;;3.45;;
78875;SDS011;68253;52.506;5.486;2023-08-24T03:55:25;9.73;;;3.63;;
78875;SDS011;68253;52.506;5.486;2023-08-24T03:57:52;7.80;;;2.80;;
78875;SDS011;68253;52.506;5.486;2023-08-24T04:00:19;7.65;;;2.75;;
78875;SDS011;68253;52.506;5.486;2023-08-24T04:02:47;7.10;;;2.70;;
78875;SDS011;68253;52.506;5.486;2023-08-24T04:05:21;7.45;;;2.35;;
78875;SDS011;68253;52.506;5.486;2023-08-24T04:07:47;8.23;;;2.92;;
78875;SDS011;68253;52.506;5.486;2023-08-24T04:10:14;7.60;;;2.65;;
78875;SDS011;68253;52.506;5.486;2023-08-24T04:12:40;8.95;;;3.55;;
78875;SDS011;68253;52.506;5.486;2023-08-24T04:15:06;7.20;;;2.53;;
78875;SDS011;68253;52.506;5.486;2023-08-24T04:17:33;6.95;;;2.47;;
78875;SDS011;68253;52.506;5.486;2023-08-24T04:19:59;6.85;;;2.38;;
78875;SDS011;68253;52.506;5.486;2023-08-24T04:22:26;6.05;;;2.28;;
78875;SDS011;68253;52.506;5.486;2023-08-24T04:24:52;8.43;;;2.63;;
78875;SDS011;68253;52.506;5.486;2023-08-24T04:27:18;7.72;;;2.53;;
78875;SDS011;68253;52.506;5.486;2023-08-24T04:29:45;7.35;;;2.33;;
78875;SDS011;68253;52.506;5.486;2023-08-24T04:32:11;7.68;;;2.58;;
78875;SDS011;68253;52.506;5.486;2023-08-24T04:34:37;7.78;;;2.58;;
78875;SDS011;68253;52.506;5.486;2023-08-24T04:37:03;6.88;;;2.35;;
78875;SDS011;68253;52.506;5.486;2023-08-24T04:39:29;7.55;;;2.60;;
78875;SDS011;68253;52.506;5.486;2023-08-24T04:41:56;8.85;;;2.88;;
78875;SDS011;68253;52.506;5.486;2023-08-24T04:44:22;6.00;;;2.17;;
78875;SDS011;68253;52.506;5.486;2023-08-24T04:46:50;8.80;;;3.40;;
78875;SDS011;68253;52.506;5.486;2023-08-24T04:49:16;7.07;;;2.70;;
78875;SDS011;68253;52.506;5.486;2023-08-24T04:51:42;6.65;;;2.33;;
78875;SDS011;68253;52.506;5.486;2023-08-24T04:54:08;7.82;;;2.65;;
78875;SDS011;68253;52.506;5.486;2023-08-24T04:56:35;8.10;;;2.70;;
78875;SDS011;68253;52.506;5.486;2023-08-24T04:59:01;6.50;;;2.53;;
78875;SDS011;68253;52.506;5.486;2023-08-24T05:01:28;8.35;;;2.25;;
78875;SDS011;68253;52.506;5.486;2023-08-24T05:03:57;7.18;;;2.40;;
78875;SDS011;68253;52.506;5.486;2023-08-24T05:06:23;7.60;;;2.92;;
78875;SDS011;68253;52.506;5.486;2023-08-24T05:08:49;12.02;;;3.55;;
78875;SDS011;68253;52.506;5.486;2023-08-24T05:11:19;7.88;;;2.72;;
78875;SDS011;68253;52.506;5.486;2023-08-24T05:13:47;9.38;;;2.50;;
78875;SDS011;68253;52.506;5.486;2023-08-24T05:16:14;7.53;;;2.80;;
78875;SDS011;68253;52.506;5.486;2023-08-24T05:18:40;7.07;;;2.53;;
78875;SDS011;68253;52.506;5.486;2023-08-24T05:21:06;10.07;;;3.38;;
78875;SDS011;68253;52.506;5.486;2023-08-24T05:23:33;8.98;;;3.30;;
78875;SDS011;68253;52.506;5.486;2023-08-24T05:25:59;7.30;;;2.65;;
78875;SDS011;68253;52.506;5.486;2023-08-24T05:28:26;8.82;;;2.72;;
78875;SDS011;68253;52.506;5.486;2023-08-24T05:30:53;8.23;;;3.05;;
78875;SDS011;68253;52.506;5.486;2023-08-24T05:33:20;8.80;;;3.15;;
78875;SDS011;68253;52.506;5.486;2023-08-24T05:35:48;8.13;;;2.50;;
78875;SDS011;68253;52.506;5.486;2023-08-24T05:38:15;8.95;;;3.20;;
78875;SDS011;68253;52.506;5.486;2023-08-24T05:40:50;7.90;;;2.70;;
78875;SDS011;68253;52.506;5.486;2023-08-24T05:43:17;7.32;;;2.60;;
78875;SDS011;68253;52.506;5.486;2023-08-24T05:45:43;9.77;;;3.33;;
78875;SDS011;68253;52.506;5.486;2023-08-24T05:48:10;7.80;;;2.55;;
78875;SDS011;68253;52.506;5.486;2023-08-24T05:50:37;9.15;;;2.53;;
78875;SDS011;68253;52.506;5.486;2023-08-24T05:53:08;10.82;;;2.90;;
78875;SDS011;68253;52.506;5.486;2023-08-24T05:55:34;8.70;;;2.72;;
78875;SDS011;68253;52.506;5.486;2023-08-24T05:58:01;6.57;;;2.40;;
78875;SDS011;68253;52.506;5.486;2023-08-24T06:00:27;8.23;;;3.42;;
78875;SDS011;68253;52.506;5.486;2023-08-24T06:02:53;7.93;;;2.70;;
78875;SDS011;68253;52.506;5.486;2023-08-24T06:05:19;8.23;;;2.70;;
78875;SDS011;68253;52.506;5.486;2023-08-24T06:07:45;7.25;;;2.70;;
78875;SDS011;68253;52.506;5.486;2023-08-24T06:10:11;8.15;;;2.50;;
78875;SDS011;68253;52.506;5.486;2023-08-24T06:12:38;7.75;;;3.20;;
78875;SDS011;68253;52.506;5.486;2023-08-24T06:15:04;9.23;;;2.88;;
78875;SDS011;68253;52.506;5.486;2023-08-24T06:17:33;9.23;;;2.83;;
78875;SDS011;68253;52.506;5.486;2023-08-24T06:20:04;8.07;;;2.78;;
78875;SDS011;68253;52.506;5.486;2023-08-24T06:22:30;8.48;;;2.70;;
78875;SDS011;68253;52.506;5.486;2023-08-24T06:24:56;8.23;;;2.72;;
78875;SDS011;68253;52.506;5.486;2023-08-24T06:27:25;7.88;;;2.55;;
78875;SDS011;68253;52.506;5.486;2023-08-24T06:29:52;6.93;;;2.58;;
78875;SDS011;68253;52.506;5.486;2023-08-24T06:32:18;7.25;;;2.60;;
78875;SDS011;68253;52.506;5.486;2023-08-24T06:34:44;8.15;;;2.67;;
78875;SDS011;68253;52.506;5.486;2023-08-24T06:37:11;9.02;;;3.00;;
78875;SDS011;68253;52.506;5.486;2023-08-24T06:39:37;8.50;;;3.45;;
78875;SDS011;68253;52.506;5.486;2023-08-24T06:42:03;8.57;;;3.08;;
78875;SDS011;68253;52.506;5.486;2023-08-24T06:44:30;10.18;;;3.70;;
78875;SDS011;68253;52.506;5.486;2023-08-24T06:46:56;9.07;;;3.53;;
78875;SDS011;68253;52.506;5.486;2023-08-24T06:49:22;7.25;;;2.50;;
78875;SDS011;68253;52.506;5.486;2023-08-24T06:51:48;8.20;;;2.92;;
78875;SDS011;68253;52.506;5.486;2023-08-24T06:54:14;9.55;;;3.75;;
78875;SDS011;68253;52.506;5.486;2023-08-24T06:56:41;6.65;;;2.20;;
78875;SDS011;68253;52.506;5.486;2023-08-24T06:59:08;10.05;;;3.40;;
78875;SDS011;68253;52.506;5.486;2023-08-24T07:01:36;11.82;;;4.07;;
78875;SDS011;68253;52.506;5.486;2023-08-24T07:04:02;7.90;;;3.20;;
78875;SDS011;68253;52.506;5.486;2023-08-24T07:06:29;8.27;;;2.78;;
78875;SDS011;68253;52.506;5.486;2023-08-24T07:08:55;8.32;;;2.88;;
78875;SDS011;68253;52.506;5.486;2023-08-24T07:11:21;8.38;;;3.10;;
78875;SDS011;68253;52.506;5.486;2023-08-24T07:13:49;11.35;;;3.78;;
78875;SDS011;68253;52.506;5.486;2023-08-24T07:16:15;10.40;;;4.30;;
78875;SDS011;68253;52.506;5.486;2023-08-24T07:18:41;9.60;;;3.30;;
78875;SDS011;68253;52.506;5.486;2023-08-24T07:21:08;8.50;;;3.58;;
78875;SDS011;68253;52.506;5.486;2023-08-24T07:23:34;11.40;;;4.78;;
78875;SDS011;68253;52.506;5.486;2023-08-24T07:26:00;11.48;;;4.93;;
78875;SDS011;68253;52.506;5.486;2023-08-24T07:28:26;10.27;;;3.75;;
78875;SDS011;68253;52.506;5.486;2023-08-24T07:30:52;10.10;;;4.20;;
78875;SDS011;68253;52.506;5.486;2023-08-24T07:33:21;9.38;;;3.35;;
78875;SDS011;68253;52.506;5.486;2023-08-24T07:35:47;10.48;;;4.72;;
78875;SDS011;68253;52.506;5.486;2023-08-24T07:38:14;9.85;;;3.30;;
78875;SDS011;68253;52.506;5.486;2023-08-24T07:40:40;10.02;;;3.72;;
78875;SDS011;68253;52.506;5.486;2023-08-24T07:43:06;8.93;;;3.70;;
78875;SDS011;68253;52.506;5.486;2023-08-24T07:45:33;7.72;;;3.30;;
78875;SDS011;68253;52.506;5.486;2023-08-24T07:47:59;10.65;;;3.55;;
78875;SDS011;68253;52.506;5.486;2023-08-24T07:50:25;10.85;;;4.53;;
78875;SDS011;68253;52.506;5.486;2023-08-24T07:52:51;9.82;;;4.03;;
78875;SDS011;68253;52.506;5.486;2023-08-24T07:55:18;10.00;;;3.75;;
78875;SDS011;68253;52.506;5.486;2023-08-24T07:57:44;9.65;;;4.20;;
78875;SDS011;68253;52.506;5.486;2023-08-24T08:00:10;10.90;;;4.15;;
78875;SDS011;68253;52.506;5.486;2023-08-24T08:02:39;9.20;;;3.75;;
78875;SDS011;68253;52.506;5.486;2023-08-24T08:05:05;9.70;;;4.22;;
78875;SDS011;68253;52.506;5.486;2023-08-24T08:07:35;8.80;;;3.22;;
78875;SDS011;68253;52.506;5.486;2023-08-24T08:10:03;8.82;;;3.85;;
78875;SDS011;68253;52.506;5.486;2023-08-24T08:12:30;9.57;;;4.32;;
78875;SDS011;68253;52.506;5.486;2023-08-24T08:14:57;10.00;;;3.40;;
78875;SDS011;68253;52.506;5.486;2023-08-24T08:17:23;11.05;;;4.82;;
78875;SDS011;68253;52.506;5.486;2023-08-24T08:19:54;10.70;;;5.03;;
78875;SDS011;68253;52.506;5.486;2023-08-24T08:22:21;10.95;;;3.72;;
78875;SDS011;68253;52.506;5.486;2023-08-24T08:24:47;11.50;;;4.70;;
78875;SDS011;68253;52.506;5.486;2023-08-24T08:27:13;8.48;;;3.33;;
78875;SDS011;68253;52.506;5.486;2023-08-24T08:29:39;10.10;;;4.20;;
78875;SDS011;68253;52.506;5.486;2023-08-24T08:32:05;11.25;;;4.10;;
78875;SDS011;68253;52.506;5.486;2023-08-24T08:34:33;12.05;;;5.00;;
78875;SDS011;68253;52.506;5.486;2023-08-24T08:36:59;9.60;;;4.30;;
78875;SDS011;68253;52.506;5.486;2023-08-24T08:39:25;12.10;;;4.78;;
78875;SDS011;68253;52.506;5.486;2023-08-24T08:41:51;11.95;;;5.43;;
78875;SDS011;68253;52.506;5.486;2023-08-24T08:44:17;9.98;;;4.00;;
78875;SDS011;68253;52.506;5.486;2023-08-24T08:46:45;9.27;;;3.45;;
78875;SDS011;68253;52.506;5.486;2023-08-24T08:49:13;12.15;;;3.78;;
78875;SDS011;68253;52.506;5.486;2023-08-24T08:51:41;8.93;;;3.55;;
78875;SDS011;68253;52.506;5.486;2023-08-24T08:54:08;9.90;;;4.10;;
78875;SDS011;68253;52.506;5.486;2023-08-24T08:56:34;10.57;;;3.83;;
78875;SDS011;68253;52.506;5.486;2023-08-24T08:59:01;10.70;;;4.50;;
78875;SDS011;68253;52.506;5.486;2023-08-24T09:01:30;14.15;;;5.15;;
78875;SDS011;68253;52.506;5.486;2023-08-24T09:03:56;12.75;;;6.22;;
78875;SDS011;68253;52.506;5.486;2023-08-24T09:06:23;8.43;;;3.55;;
78875;SDS011;68253;52.506;5.486;2023-08-24T09:08:49;9.30;;;3.65;;
78875;SDS011;68253;52.506;5.486;2023-08-24T09:11:16;10.02;;;3.60;;
78875;SDS011;68253;52.506;5.486;2023-08-24T09:13:44;11.20;;;5.32;;
78875;SDS011;68253;52.506;5.486;2023-08-24T09:16:11;9.90;;;4.00;;
78875;SDS011;68253;52.506;5.486;2023-08-24T09:18:43;11.05;;;4.55;;
78875;SDS011;68253;52.506;5.486;2023-08-24T09:21:11;9.13;;;3.58;;
78875;SDS011;68253;52.506;5.486;2023-08-24T09:23:45;9.38;;;3.83;;
78875;SDS011;68253;52.506;5.486;2023-08-24T09:26:28;7.95;;;3.03;;
78875;SDS011;68253;52.506;5.486;2023-08-24T09:28:55;10.23;;;3.53;;
78875;SDS011;68253;52.506;5.486;2023-08-24T09:31:22;9.70;;;3.53;;
78875;SDS011;68253;52.506;5.486;2023-08-24T09:33:49;10.32;;;3.65;;
78875;SDS011;68253;52.506;5.486;2023-08-24T09:36:25;8.75;;;3.47;;
78875;SDS011;68253;52.506;5.486;2023-08-24T09:38:51;9.15;;;3.13;;
78875;SDS011;68253;52.506;5.486;2023-08-24T09:41:17;8.23;;;3.08;;
78875;SDS011;68253;52.506;5.486;2023-08-24T09:43:44;10.43;;;3.80;;
78875;SDS011;68253;52.506;5.486;2023-08-24T09:46:10;8.25;;;2.90;;
78875;SDS011;68253;52.506;5.486;2023-08-24T09:48:36;7.40;;;3.00;;
78875;SDS011;68253;52.506;5.486;2023-08-24T09:51:03;11.43;;;4.00;;
78875;SDS011;68253;52.506;5.486;2023-08-24T09:55:59;9.43;;;3.25;;
78875;SDS011;68253;52.506;5.486;2023-08-24T09:58:26;9.30;;;3.22;;
78875;SDS011;68253;52.506;5.486;2023-08-24T10:00:53;9.25;;;3.35;;
78875;SDS011;68253;52.506;5.486;2023-08-24T10:03:21;9.32;;;3.70;;
78875;SDS011;68253;52.506;5.486;2023-08-24T10:05:53;8.57;;;3.20;;
78875;SDS011;68253;52.506;5.486;2023-08-24T10:08:27;8.90;;;3.55;;
78875;SDS011;68253;52.506;5.486;2023-08-24T10:11:00;8.82;;;3.13;;
78875;SDS011;68253;52.506;5.486;2023-08-24T10:13:41;8.75;;;3.85;;
78875;SDS011;68253;52.506;5.486;2023-08-24T10:16:14;9.00;;;3.53;;
78875;SDS011;68253;52.506;5.486;2023-08-24T10:18:43;9.77;;;3.33;;
78875;SDS011;68253;52.506;5.486;2023-08-24T10:21:10;12.15;;;5.70;;
78875;SDS011;68253;52.506;5.486;2023-08-24T10:23:36;11.02;;;5.40;;
78875;SDS011;68253;52.506;5.486;2023-08-24T10:26:05;9.90;;;3.92;;
78875;SDS011;68253;52.506;5.486;2023-08-24T10:28:32;8.27;;;3.65;;
78875;SDS011;68253;52.506;5.486;2023-08-24T10:30:59;9.38;;;3.38;;
78875;SDS011;68253;52.506;5.486;2023-08-24T10:33:27;9.20;;;4.18;;
78875;SDS011;68253;52.506;5.486;2023-08-24T10:35:55;8.10;;;3.25;;
78875;SDS011;68253;52.506;5.486;2023-08-24T10:38:24;10.55;;;4.13;;
78875;SDS011;68253;52.506;5.486;2023-08-24T10:40:52;8.73;;;3.22;;
78875;SDS011;68253;52.506;5.486;2023-08-24T10:43:19;8.82;;;3.47;;
78875;SDS011;68253;52.506;5.486;2023-08-24T10:48:29;9.65;;;3.72;;
78875;SDS011;68253;52.506;5.486;2023-08-24T10:53:43;9.80;;;3.97;;
78875;SDS011;68253;52.506;5.486;2023-08-24T10:58:37;10.07;;;4.25;;
78875;SDS011;68253;52.506;5.486;2023-08-24T11:01:03;10.55;;;3.90;;
78875;SDS011;68253;52.506;5.486;2023-08-24T11:03:30;9.57;;;3.88;;
78875;SDS011;68253;52.506;5.486;2023-08-24T11:05:58;8.88;;;3.90;;
78875;SDS011;68253;52.506;5.486;2023-08-24T11:11:23;8.52;;;4.15;;
78875;SDS011;68253;52.506;5.486;2023-08-24T11:16:45;9.15;;;3.90;;
78875;SDS011;68253;52.506;5.486;2023-08-24T11:19:13;9.82;;;4.55;;
78875;SDS011;68253;52.506;5.486;2023-08-24T11:21:40;9.52;;;4.28;;
78875;SDS011;68253;52.506;5.486;2023-08-24T11:24:14;9.98;;;3.97;;
78875;SDS011;68253;52.506;5.486;2023-08-24T11:26:45;10.05;;;4.45;;
78875;SDS011;68253;52.506;5.486;2023-08-24T11:29:13;8.82;;;3.92;;
78875;SDS011;68253;52.506;5.486;2023-08-24T11:31:41;8.45;;;3.92;;
78875;SDS011;68253;52.506;5.486;2023-08-24T11:34:07;10.18;;;4.35;;
78875;SDS011;68253;52.506;5.486;2023-08-24T11:36:43;9.32;;;3.83;;
78875;SDS011;68253;52.506;5.486;2023-08-24T11:39:18;10.50;;;4.55;;
78875;SDS011;68253;52.506;5.486;2023-08-24T11:41:56;10.35;;;4.32;;
78875;SDS011;68253;52.506;5.486;2023-08-24T11:44:23;9.25;;;4.30;;
78875;SDS011;68253;52.506;5.486;2023-08-24T11:46:50;10.85;;;4.65;;
78875;SDS011;68253;52.506;5.486;2023-08-24T11:49:16;10.85;;;4.93;;
78875;SDS011;68253;52.506;5.486;2023-08-24T11:51:42;10.63;;;4.40;;
78875;SDS011;68253;52.506;5.486;2023-08-24T11:54:09;9.65;;;4.38;;
78875;SDS011;68253;52.506;5.486;2023-08-24T11:56:41;10.25;;;4.40;;
78875;SDS011;68253;52.506;5.486;2023-08-24T11:59:12;9.63;;;4.13;;
78875;SDS011;68253;52.506;5.486;2023-08-24T12:01:39;11.07;;;4.80;;
78875;SDS011;68253;52.506;5.486;2023-08-24T12:04:07;11.75;;;5.30;;
78875;SDS011;68253;52.506;5.486;2023-08-24T12:06:33;10.73;;;4.82;;
78875;SDS011;68253;52.506;5.486;2023-08-24T12:09:00;12.98;;;6.68;;
78875;SDS011;68253;52.506;5.486;2023-08-24T12:11:28;11.82;;;6.03;;
78875;SDS011;68253;52.506;5.486;2023-08-24T12:13:54;11.77;;;6.53;;
78875;SDS011;68253;52.506;5.486;2023-08-24T12:16:21;9.45;;;5.38;;
78875;SDS011;68253;52.506;5.486;2023-08-24T12:18:53;10.02;;;5.40;;
78875;SDS011;68253;52.506;5.486;2023-08-24T12:21:21;12.25;;;6.43;;
78875;SDS011;68253;52.506;5.486;2023-08-24T12:24:04;10.77;;;5.38;;
78875;SDS011;68253;52.506;5.486;2023-08-24T12:26:34;13.43;;;7.35;;
78875;SDS011;68253;52.506;5.486;2023-08-24T12:29:02;11.60;;;5.88;;
78875;SDS011;68253;52.506;5.486;2023-08-24T12:31:31;11.85;;;5.40;;
78875;SDS011;68253;52.506;5.486;2023-08-24T12:34:00;11.18;;;5.72;;
78875;SDS011;68253;52.506;5.486;2023-08-24T12:36:29;10.38;;;5.72;;
78875;SDS011;68253;52.506;5.486;2023-08-24T12:38:59;10.25;;;5.20;;
78875;SDS011;68253;52.506;5.486;2023-08-24T12:41:25;11.20;;;5.30;;
78875;SDS011;68253;52.506;5.486;2023-08-24T12:43:51;12.15;;;6.97;;
78875;SDS011;68253;52.506;5.486;2023-08-24T12:46:18;13.68;;;6.15;;
78875;SDS011;68253;52.506;5.486;2023-08-24T12:48:44;11.40;;;5.22;;
78875;SDS011;68253;52.506;5.486;2023-08-24T12:51:10;10.52;;;5.40;;
78875;SDS011;68253;52.506;5.486;2023-08-24T12:53:37;10.55;;;5.20;;
78875;SDS011;68253;52.506;5.486;2023-08-24T12:56:03;10.43;;;4.55;;
78875;SDS011;68253;52.506;5.486;2023-08-24T12:58:29;10.93;;;5.47;;
78875;SDS011;68253;52.506;5.486;2023-08-24T13:00:56;11.90;;;6.65;;
78875;SDS011;68253;52.506;5.486;2023-08-24T13:03:22;10.82;;;5.45;;
78875;SDS011;68253;52.506;5.486;2023-08-24T13:05:48;11.60;;;5.53;;
78875;SDS011;68253;52.506;5.486;2023-08-24T13:08:14;10.23;;;5.35;;
78875;SDS011;68253;52.506;5.486;2023-08-24T13:10:41;12.02;;;5.95;;
78875;SDS011;68253;52.506;5.486;2023-08-24T13:13:07;10.32;;;5.32;;
78875;SDS011;68253;52.506;5.486;2023-08-24T13:15:34;11.25;;;5.28;;
78875;SDS011;68253;52.506;5.486;2023-08-24T13:18:00;11.90;;;5.45;;
78875;SDS011;68253;52.506;5.486;2023-08-24T13:20:26;12.57;;;6.15;;
78875;SDS011;68253;52.506;5.486;2023-08-24T13:22:52;12.63;;;7.18;;
78875;SDS011;68253;52.506;5.486;2023-08-24T13:25:19;10.52;;;5.47;;
78875;SDS011;68253;52.506;5.486;2023-08-24T13:27:45;11.13;;;5.97;;
78875;SDS011;68253;52.506;5.486;2023-08-24T13:30:11;10.95;;;5.60;;
78875;SDS011;68253;52.506;5.486;2023-08-24T13:32:38;10.95;;;5.75;;
78875;SDS011;68253;52.506;5.486;2023-08-24T13:35:04;11.55;;;6.15;;
78875;SDS011;68253;52.506;5.486;2023-08-24T13:37:31;10.63;;;5.30;;
78875;SDS011;68253;52.506;5.486;2023-08-24T13:40:00;10.00;;;5.10;;
78875;SDS011;68253;52.506;5.486;2023-08-24T13:42:27;11.60;;;5.55;;
78875;SDS011;68253;52.506;5.486;2023-08-24T13:44:53;12.23;;;5.30;;
78875;SDS011;68253;52.506;5.486;2023-08-24T13:47:19;9.75;;;4.43;;
78875;SDS011;68253;52.506;5.486;2023-08-24T13:49:47;11.05;;;4.95;;
78875;SDS011;68253;52.506;5.486;2023-08-24T13:52:14;10.73;;;5.38;;
78875;SDS011;68253;52.506;5.486;2023-08-24T13:54:41;9.57;;;4.32;;
78875;SDS011;68253;52.506;5.486;2023-08-24T13:57:08;9.68;;;4.55;;
78875;SDS011;68253;52.506;5.486;2023-08-24T13:59:34;9.13;;;4.00;;
78875;SDS011;68253;52.506;5.486;2023-08-24T14:02:01;9.40;;;4.78;;
78875;SDS011;68253;52.506;5.486;2023-08-24T14:04:27;10.82;;;4.70;;
78875;SDS011;68253;52.506;5.486;2023-08-24T14:06:53;10.05;;;4.40;;
78875;SDS011;68253;52.506;5.486;2023-08-24T14:09:19;9.95;;;4.32;;
78875;SDS011;68253;52.506;5.486;2023-08-24T14:11:45;9.60;;;4.65;;
78875;SDS011;68253;52.506;5.486;2023-08-24T14:14:13;9.95;;;4.85;;
78875;SDS011;68253;52.506;5.486;2023-08-24T14:16:39;8.77;;;4.07;;
78875;SDS011;68253;52.506;5.486;2023-08-24T14:19:06;11.10;;;4.10;;
78875;SDS011;68253;52.506;5.486;2023-08-24T14:21:32;9.85;;;4.00;;
78875;SDS011;68253;52.506;5.486;2023-08-24T14:23:58;10.50;;;4.97;;
78875;SDS011;68253;52.506;5.486;2023-08-24T14:26:24;9.75;;;4.53;;
78875;SDS011;68253;52.506;5.486;2023-08-24T14:28:54;9.60;;;4.68;;
78875;SDS011;68253;52.506;5.486;2023-08-24T14:31:29;11.90;;;5.45;;
78875;SDS011;68253;52.506;5.486;2023-08-24T14:33:55;13.80;;;6.95;;
78875;SDS011;68253;52.506;5.486;2023-08-24T14:36:22;10.23;;;4.68;;
78875;SDS011;68253;52.506;5.486;2023-08-24T14:38:49;10.25;;;5.10;;
78875;SDS011;68253;52.506;5.486;2023-08-24T14:41:17;10.90;;;4.72;;
78875;SDS011;68253;52.506;5.486;2023-08-24T14:43:44;9.93;;;5.20;;
78875;SDS011;68253;52.506;5.486;2023-08-24T14:46:11;9.80;;;4.82;;
78875;SDS011;68253;52.506;5.486;2023-08-24T14:48:38;10.70;;;5.00;;
78875;SDS011;68253;52.506;5.486;2023-08-24T14:51:04;11.32;;;5.22;;
78875;SDS011;68253;52.506;5.486;2023-08-24T14:53:31;11.07;;;5.05;;
78875;SDS011;68253;52.506;5.486;2023-08-24T14:55:57;10.02;;;5.15;;
78875;SDS011;68253;52.506;5.486;2023-08-24T14:58:24;10.60;;;4.70;;
78875;SDS011;68253;52.506;5.486;2023-08-24T15:00:51;10.43;;;4.80;;
78875;SDS011;68253;52.506;5.486;2023-08-24T15:03:19;10.30;;;5.05;;
78875;SDS011;68253;52.506;5.486;2023-08-24T15:05:46;11.13;;;5.20;;